^^
Station Historical Data
Daily Summary for February 27, 2018 Units:  Metric    English   Both
« Previous Day
Next Day »
Daily Weekly Monthly Yearly Custom
  High: Low: Average:
Temperature: -17.8 °C 23.9 °C 29.4 °C
Dew Point: -17.8 °C 0 °C 3.9 °C
Humidity: Humidity% 10% 20%
Wind Speed: 0km/h -1609.1km/h -31.9km/h
Wind Gust: 0km/h - -
Wind- -
Pressure: 0 hPa 1002.9 hPa -
Precipitation: 0 mm    
Historical Graphs
 
 
Tabular Data for February 27, 2018
Time Temperature Dew Point Pressure Wind Wind Speed Wind Gust Humidity Rainfall Rate (Hourly) solar Conditions
-17.8 °C -17.8 °C 0 hPa Calm     Humidity% 0 mm SolarRadiationWatts/m^2 W/m2 Conditions
09:26 23.9 °C 6.6 °C 1007.7 hPa West 9.7 km/h 14.5 km/h 33% 0 mm 552.0 W/m2
09:32 24.1 °C 6.4 °C 1007.7 hPa West 11.1 km/h 12.9 km/h 32% 0 mm 570.0 W/m2
09:41 24.6 °C 5.9 °C 1007.7 hPa West 7.9 km/h 9.7 km/h 30% 0 mm 603.0 W/m2
09:46 24.8 °C 6 °C 1007.7 hPa West 3.2 km/h 9.7 km/h 30% 0 mm 619.0 W/m2
09:52 25.1 °C 5.8 °C 1007.7 hPa West 9.7 km/h 9.7 km/h 29% 0 mm 633.0 W/m2
09:57 25.4 °C 5.6 °C 1007.7 hPa West 6.4 km/h 9.7 km/h 28% 0 mm 643.0 W/m2
10:02 25.6 °C 5.7 °C 1007.7 hPa West 3.2 km/h 4.8 km/h 28% 0 mm 664.0 W/m2
10:08 25.9 °C 6 °C 1007.7 hPa Calm     28% 0 mm 673.0 W/m2
10:13 26.3 °C 5.8 °C 1007.7 hPa Calm     27% 0 mm 696.0 W/m2
10:22 26.8 °C 5.7 °C 1007.7 hPa Calm     26% 0 mm 717.0 W/m2
10:32 27.1 °C 4.8 °C 1007.7 hPa Calm     24% 0 mm 733.0 W/m2
10:43 27.7 °C 4.7 °C 1007.3 hPa Calm   -1607.7 km/h 23% 0 mm 763.0 W/m2
10:53 28.7 °C 4.2 °C 1007.3 hPa Calm     21% 0 mm 800.0 W/m2
11:08 29.3 °C 4 °C 1007.3 hPa Calm     20% 0 mm 837.0 W/m2
11:33 30.7 °C 3.7 °C 1007 hPa Calm     18% 0 mm 877.0 W/m2
11:59 31.7 °C 2.8 °C 1006.3 hPa West 13 km/h 14.5 km/h 16% 0 mm 912.0 W/m2
12:20 33.6 °C 2.4 °C 1006 hPa NW 7.9 km/h 20.9 km/h 14% 0 mm 928.0 W/m2
12:41 34 °C 1.7 °C 1005.6 hPa NW 7.9 km/h 20.9 km/h 13% 0 mm 939.0 W/m2
13:28 35.3 °C 1.6 °C 1005 hPa North 7.9 km/h 22.5 km/h 12% 0 mm 940.0 W/m2
13:42 35 °C 1.4 °C 1005 hPa NNW 9.7 km/h 12.9 km/h 12% 0 mm 933.0 W/m2
13:56 35.4 °C 2.8 °C 1004.6 hPa NNW 1.4 km/h 17.7 km/h 13% 0 mm 919.0 W/m2
14:12 35.7 °C 0.7 °C 1004.6 hPa NNW 20.9 km/h 20.9 km/h 11% 0 mm 905.0 W/m2
14:36 36.5 °C 1.3 °C 1004.3 hPa Calm   12.9 km/h 11% 0 mm 863.0 W/m2
14:58 36.6 °C 0 °C 1004.3 hPa North 7.9 km/h 8 km/h 10% 0 mm 840.0 W/m2
15:12 36.5 °C 1.3 °C 1003.9 hPa Calm     11% 0 mm 802.0 W/m2
15:44 37.2 °C 1.8 °C 1003.3 hPa NNW 20.9 km/h 22.5 km/h 11% 0 mm 728.0 W/m2
15:57 36.9 °C 1.6 °C 1003.3 hPa NNW 13 km/h 14.5 km/h 11% 0 mm 680.0 W/m2
16:24 37 °C 1.7 °C 1002.9 hPa Calm   -1607.7 km/h 11% 0 mm 610.0 W/m2
16:59 37.1 °C 1.8 °C 1002.9 hPa NW 9.7 km/h 20.9 km/h 11% 0 mm 489.0 W/m2
17:30 36.8 °C 1.5 °C 1002.9 hPa North -1609.1 km/h -1607.7 km/h 11% 0 mm 425.0 W/m2
18:38 33.2 °C 7.2 °C 1003.3 hPa SSW 22.7 km/h 32.2 km/h 20% 0 mm 105.0 W/m2
19:05 31.5 °C 7.9 °C 1003.9 hPa SSW 24.1 km/h 27.4 km/h 23% 0 mm 26.0 W/m2
19:20 30.4 °C 8.2 °C 1003.9 hPa SSW 25.9 km/h 25.9 km/h 25% 0 mm 9.0 W/m2
19:58 28.7 °C 8.9 °C 1004.6 hPa SSW 24.1 km/h 29 km/h 29% 0 mm 0.0 W/m2
20:14 28.1 °C 8.9 °C 1005 hPa SSW 27.4 km/h 30.6 km/h 30% 0 mm 0.0 W/m2
20:26 27.8 °C 8.6 °C 1005.3 hPa SSW 30.6 km/h 30.6 km/h 30% 0 mm 0.0 W/m2
20:40 27.3 °C 8.7 °C 1005.6 hPa SSW 20.9 km/h 25.7 km/h 31% 0 mm 0.0 W/m2
20:53 26.9 °C 8.8 °C 1005.6 hPa SSW 16.3 km/h 22.5 km/h 32% 0 mm 0.0 W/m2
Canyon Roadhouse, Fishriver Canyon, Namibia
Compliments of Weather Underground - 1.75 mb